sensor_id;sensor_type;location;lat;lon;timestamp;P1;durP1;ratioP1;P2;durP2;ratioP2
67675;SDS011;54456;48.436;10.028;2023-04-06T03:15:25;17.33;;;6.60;;
67675;SDS011;54456;48.436;10.028;2023-04-06T03:16:56;16.10;;;7.00;;
67675;SDS011;54456;48.436;10.028;2023-04-06T03:18:26;19.47;;;6.97;;
67675;SDS011;54456;48.436;10.028;2023-04-06T03:19:56;22.17;;;7.43;;
67675;SDS011;54456;48.436;10.028;2023-04-06T03:21:27;18.03;;;6.90;;
67675;SDS011;54456;48.436;10.028;2023-04-06T03:22:57;18.93;;;7.73;;
67675;SDS011;54456;48.436;10.028;2023-04-06T03:24:27;20.52;;;8.02;;
67675;SDS011;54456;48.436;10.028;2023-04-06T03:25:58;19.77;;;6.87;;
67675;SDS011;54456;48.436;10.028;2023-04-06T03:27:28;17.80;;;7.17;;
67675;SDS011;54456;48.436;10.028;2023-04-06T03:28:58;24.40;;;7.23;;
67675;SDS011;54456;48.436;10.028;2023-04-06T03:30:28;21.60;;;8.23;;
67675;SDS011;54456;48.436;10.028;2023-04-06T03:31:58;22.40;;;7.97;;
67675;SDS011;54456;48.436;10.028;2023-04-06T03:33:29;17.27;;;7.00;;
67675;SDS011;54456;48.436;10.028;2023-04-06T03:34:59;15.77;;;6.37;;
67675;SDS011;54456;48.436;10.028;2023-04-06T03:36:29;21.02;;;8.25;;
67675;SDS011;54456;48.436;10.028;2023-04-06T03:38:00;19.35;;;7.00;;
67675;SDS011;54456;48.436;10.028;2023-04-06T03:39:31;20.43;;;7.47;;
67675;SDS011;54456;48.436;10.028;2023-04-06T03:41:01;20.38;;;6.97;;
67675;SDS011;54456;48.436;10.028;2023-04-06T03:42:31;19.43;;;6.90;;
67675;SDS011;54456;48.436;10.028;2023-04-06T03:44:02;18.38;;;6.75;;
67675;SDS011;54456;48.436;10.028;2023-04-06T03:45:32;20.23;;;7.13;;
67675;SDS011;54456;48.436;10.028;2023-04-06T03:47:02;18.93;;;7.53;;
67675;SDS011;54456;48.436;10.028;2023-04-06T03:48:33;21.67;;;6.53;;
67675;SDS011;54456;48.436;10.028;2023-04-06T03:50:03;22.93;;;8.17;;
67675;SDS011;54456;48.436;10.028;2023-04-06T03:51:34;20.45;;;8.20;;
67675;SDS011;54456;48.436;10.028;2023-04-06T03:53:04;18.55;;;7.57;;
67675;SDS011;54456;48.436;10.028;2023-04-06T03:54:34;20.13;;;8.47;;
67675;SDS011;54456;48.436;10.028;2023-04-06T03:56:05;15.85;;;7.60;;
67675;SDS011;54456;48.436;10.028;2023-04-06T03:57:35;19.33;;;7.20;;
67675;SDS011;54456;48.436;10.028;2023-04-06T03:59:05;20.67;;;7.83;;
67675;SDS011;54456;48.436;10.028;2023-04-06T04:00:36;18.27;;;6.27;;
67675;SDS011;54456;48.436;10.028;2023-04-06T04:02:06;19.33;;;6.60;;
67675;SDS011;54456;48.436;10.028;2023-04-06T04:03:36;15.70;;;6.57;;
67675;SDS011;54456;48.436;10.028;2023-04-06T04:05:06;18.57;;;6.93;;
67675;SDS011;54456;48.436;10.028;2023-04-06T04:06:37;19.33;;;7.90;;
67675;SDS011;54456;48.436;10.028;2023-04-06T04:08:10;17.52;;;7.70;;
67675;SDS011;54456;48.436;10.028;2023-04-06T04:09:40;17.07;;;6.73;;
67675;SDS011;54456;48.436;10.028;2023-04-06T04:11:10;17.80;;;6.53;;
67675;SDS011;54456;48.436;10.028;2023-04-06T04:12:40;19.23;;;7.37;;
67675;SDS011;54456;48.436;10.028;2023-04-06T04:14:14;19.90;;;7.97;;
67675;SDS011;54456;48.436;10.028;2023-04-06T04:15:44;23.45;;;7.57;;
67675;SDS011;54456;48.436;10.028;2023-04-06T04:17:14;16.87;;;6.63;;
67675;SDS011;54456;48.436;10.028;2023-04-06T04:18:44;19.80;;;7.73;;
67675;SDS011;54456;48.436;10.028;2023-04-06T04:20:17;17.88;;;7.38;;
67675;SDS011;54456;48.436;10.028;2023-04-06T04:21:47;22.90;;;7.90;;
67675;SDS011;54456;48.436;10.028;2023-04-06T04:23:17;21.10;;;8.40;;
67675;SDS011;54456;48.436;10.028;2023-04-06T04:24:47;25.60;;;8.47;;
67675;SDS011;54456;48.436;10.028;2023-04-06T04:26:18;19.87;;;7.00;;
67675;SDS011;54456;48.436;10.028;2023-04-06T04:27:48;21.00;;;8.20;;
67675;SDS011;54456;48.436;10.028;2023-04-06T04:29:18;20.63;;;7.30;;
67675;SDS011;54456;48.436;10.028;2023-04-06T04:30:51;21.20;;;7.90;;
67675;SDS011;54456;48.436;10.028;2023-04-06T04:32:21;20.43;;;7.80;;
67675;SDS011;54456;48.436;10.028;2023-04-06T04:33:51;20.20;;;7.27;;
67675;SDS011;54456;48.436;10.028;2023-04-06T04:35:21;19.03;;;7.57;;
67675;SDS011;54456;48.436;10.028;2023-04-06T04:36:52;24.40;;;9.73;;
67675;SDS011;54456;48.436;10.028;2023-04-06T04:38:22;23.02;;;7.75;;
67675;SDS011;54456;48.436;10.028;2023-04-06T04:39:52;21.70;;;7.57;;
67675;SDS011;54456;48.436;10.028;2023-04-06T04:41:23;20.30;;;8.87;;
67675;SDS011;54456;48.436;10.028;2023-04-06T04:42:53;21.30;;;7.73;;
67675;SDS011;54456;48.436;10.028;2023-04-06T04:44:23;23.47;;;8.57;;
67675;SDS011;54456;48.436;10.028;2023-04-06T04:45:53;22.20;;;7.83;;
67675;SDS011;54456;48.436;10.028;2023-04-06T04:47:23;17.10;;;7.80;;
67675;SDS011;54456;48.436;10.028;2023-04-06T04:48:54;18.53;;;7.10;;
67675;SDS011;54456;48.436;10.028;2023-04-06T04:50:24;21.17;;;9.20;;
67675;SDS011;54456;48.436;10.028;2023-04-06T04:51:54;20.58;;;8.07;;
67675;SDS011;54456;48.436;10.028;2023-04-06T04:53:25;23.03;;;8.57;;
67675;SDS011;54456;48.436;10.028;2023-04-06T04:54:55;19.80;;;7.70;;
67675;SDS011;54456;48.436;10.028;2023-04-06T04:56:25;20.90;;;8.77;;
67675;SDS011;54456;48.436;10.028;2023-04-06T04:57:57;19.30;;;7.35;;
67675;SDS011;54456;48.436;10.028;2023-04-06T04:59:27;17.77;;;7.40;;
67675;SDS011;54456;48.436;10.028;2023-04-06T05:00:59;26.77;;;9.27;;
67675;SDS011;54456;48.436;10.028;2023-04-06T05:02:30;22.10;;;8.85;;
67675;SDS011;54456;48.436;10.028;2023-04-06T05:04:00;19.95;;;7.15;;
67675;SDS011;54456;48.436;10.028;2023-04-06T05:05:30;18.93;;;7.63;;
67675;SDS011;54456;48.436;10.028;2023-04-06T05:07:04;19.43;;;7.33;;
67675;SDS011;54456;48.436;10.028;2023-04-06T05:08:35;20.98;;;8.02;;
67675;SDS011;54456;48.436;10.028;2023-04-06T05:10:05;19.20;;;8.03;;
67675;SDS011;54456;48.436;10.028;2023-04-06T05:11:35;21.60;;;8.45;;
67675;SDS011;54456;48.436;10.028;2023-04-06T05:13:06;24.90;;;9.40;;
67675;SDS011;54456;48.436;10.028;2023-04-06T05:14:36;20.93;;;7.37;;
67675;SDS011;54456;48.436;10.028;2023-04-06T05:16:06;23.73;;;7.43;;
67675;SDS011;54456;48.436;10.028;2023-04-06T05:17:37;21.73;;;9.03;;
67675;SDS011;54456;48.436;10.028;2023-04-06T05:19:07;19.90;;;8.13;;
67675;SDS011;54456;48.436;10.028;2023-04-06T05:20:38;21.17;;;8.37;;
67675;SDS011;54456;48.436;10.028;2023-04-06T05:22:08;22.98;;;9.15;;
67675;SDS011;54456;48.436;10.028;2023-04-06T05:23:39;20.58;;;8.30;;
67675;SDS011;54456;48.436;10.028;2023-04-06T05:25:09;20.50;;;7.47;;
67675;SDS011;54456;48.436;10.028;2023-04-06T05:26:40;21.13;;;7.77;;
67675;SDS011;54456;48.436;10.028;2023-04-06T05:28:10;17.90;;;7.23;;
67675;SDS011;54456;48.436;10.028;2023-04-06T05:29:40;19.23;;;7.80;;
67675;SDS011;54456;48.436;10.028;2023-04-06T05:31:11;19.77;;;6.67;;
67675;SDS011;54456;48.436;10.028;2023-04-06T05:32:41;23.23;;;8.03;;
67675;SDS011;54456;48.436;10.028;2023-04-06T05:34:13;22.25;;;8.75;;
67675;SDS011;54456;48.436;10.028;2023-04-06T05:35:43;22.47;;;9.73;;
67675;SDS011;54456;48.436;10.028;2023-04-06T05:37:13;19.80;;;8.97;;
67675;SDS011;54456;48.436;10.028;2023-04-06T05:38:44;22.90;;;7.45;;
67675;SDS011;54456;48.436;10.028;2023-04-06T05:40:14;19.33;;;8.07;;
67675;SDS011;54456;48.436;10.028;2023-04-06T05:41:45;21.40;;;7.68;;
67675;SDS011;54456;48.436;10.028;2023-04-06T05:43:15;20.90;;;8.63;;
67675;SDS011;54456;48.436;10.028;2023-04-06T05:44:45;19.97;;;8.33;;
67675;SDS011;54456;48.436;10.028;2023-04-06T05:46:16;25.20;;;9.90;;
67675;SDS011;54456;48.436;10.028;2023-04-06T05:47:46;21.17;;;8.73;;
67675;SDS011;54456;48.436;10.028;2023-04-06T05:49:16;23.27;;;8.73;;
67675;SDS011;54456;48.436;10.028;2023-04-06T05:50:50;17.43;;;6.70;;
67675;SDS011;54456;48.436;10.028;2023-04-06T05:52:23;19.48;;;7.40;;
67675;SDS011;54456;48.436;10.028;2023-04-06T05:53:53;24.83;;;9.33;;
67675;SDS011;54456;48.436;10.028;2023-04-06T05:55:23;20.57;;;8.93;;
67675;SDS011;54456;48.436;10.028;2023-04-06T05:56:54;20.40;;;8.23;;
67675;SDS011;54456;48.436;10.028;2023-04-06T05:58:24;22.40;;;8.87;;
67675;SDS011;54456;48.436;10.028;2023-04-06T05:59:54;21.60;;;9.70;;
67675;SDS011;54456;48.436;10.028;2023-04-06T06:01:25;20.02;;;8.90;;
67675;SDS011;54456;48.436;10.028;2023-04-06T06:02:55;20.50;;;8.93;;
67675;SDS011;54456;48.436;10.028;2023-04-06T06:04:25;22.87;;;9.23;;
67675;SDS011;54456;48.436;10.028;2023-04-06T06:06:03;22.27;;;9.57;;
67675;SDS011;54456;48.436;10.028;2023-04-06T06:07:33;20.58;;;8.50;;
67675;SDS011;54456;48.436;10.028;2023-04-06T06:09:03;16.93;;;8.33;;
67675;SDS011;54456;48.436;10.028;2023-04-06T06:10:34;24.77;;;9.37;;
67675;SDS011;54456;48.436;10.028;2023-04-06T06:12:04;22.67;;;9.75;;
67675;SDS011;54456;48.436;10.028;2023-04-06T06:13:34;18.60;;;8.17;;
67675;SDS011;54456;48.436;10.028;2023-04-06T06:15:05;23.77;;;9.67;;
67675;SDS011;54456;48.436;10.028;2023-04-06T06:16:35;21.88;;;8.85;;
67675;SDS011;54456;48.436;10.028;2023-04-06T06:18:06;18.90;;;8.25;;
67675;SDS011;54456;48.436;10.028;2023-04-06T06:19:37;20.30;;;8.05;;
67675;SDS011;54456;48.436;10.028;2023-04-06T06:21:08;20.10;;;8.57;;
67675;SDS011;54456;48.436;10.028;2023-04-06T06:22:38;23.07;;;10.10;;
67675;SDS011;54456;48.436;10.028;2023-04-06T06:24:10;20.13;;;8.55;;
67675;SDS011;54456;48.436;10.028;2023-04-06T06:25:40;21.83;;;10.17;;
67675;SDS011;54456;48.436;10.028;2023-04-06T06:27:10;23.33;;;9.43;;
67675;SDS011;54456;48.436;10.028;2023-04-06T06:28:40;26.43;;;8.73;;
67675;SDS011;54456;48.436;10.028;2023-04-06T06:30:11;23.03;;;9.87;;
67675;SDS011;54456;48.436;10.028;2023-04-06T06:31:41;15.63;;;7.60;;
67675;SDS011;54456;48.436;10.028;2023-04-06T06:33:11;24.37;;;8.63;;
67675;SDS011;54456;48.436;10.028;2023-04-06T06:34:42;17.17;;;7.20;;
67675;SDS011;54456;48.436;10.028;2023-04-06T06:36:12;22.70;;;9.23;;
67675;SDS011;54456;48.436;10.028;2023-04-06T06:37:42;23.33;;;10.07;;
67675;SDS011;54456;48.436;10.028;2023-04-06T06:39:12;23.03;;;8.73;;
67675;SDS011;54456;48.436;10.028;2023-04-06T06:40:43;20.93;;;9.20;;
67675;SDS011;54456;48.436;10.028;2023-04-06T06:42:13;22.10;;;8.67;;
67675;SDS011;54456;48.436;10.028;2023-04-06T06:43:43;23.10;;;9.67;;
67675;SDS011;54456;48.436;10.028;2023-04-06T06:45:13;23.23;;;9.63;;
67675;SDS011;54456;48.436;10.028;2023-04-06T06:46:44;21.00;;;9.45;;
67675;SDS011;54456;48.436;10.028;2023-04-06T06:48:14;23.42;;;9.18;;
67675;SDS011;54456;48.436;10.028;2023-04-06T06:49:44;21.03;;;9.43;;
67675;SDS011;54456;48.436;10.028;2023-04-06T06:51:15;27.17;;;9.30;;
67675;SDS011;54456;48.436;10.028;2023-04-06T06:52:45;25.53;;;10.00;;
67675;SDS011;54456;48.436;10.028;2023-04-06T06:54:15;23.87;;;9.77;;
67675;SDS011;54456;48.436;10.028;2023-04-06T06:55:45;21.20;;;8.37;;
67675;SDS011;54456;48.436;10.028;2023-04-06T06:57:16;21.98;;;8.57;;
67675;SDS011;54456;48.436;10.028;2023-04-06T06:58:46;21.63;;;7.30;;
67675;SDS011;54456;48.436;10.028;2023-04-06T07:00:16;22.53;;;9.73;;
67675;SDS011;54456;48.436;10.028;2023-04-06T07:01:47;21.13;;;8.73;;
67675;SDS011;54456;48.436;10.028;2023-04-06T07:03:17;21.40;;;9.17;;
67675;SDS011;54456;48.436;10.028;2023-04-06T07:04:48;22.83;;;9.63;;
67675;SDS011;54456;48.436;10.028;2023-04-06T07:06:18;20.42;;;8.40;;
67675;SDS011;54456;48.436;10.028;2023-04-06T07:07:49;21.33;;;8.30;;
67675;SDS011;54456;48.436;10.028;2023-04-06T07:09:19;24.60;;;10.17;;
67675;SDS011;54456;48.436;10.028;2023-04-06T07:10:50;17.17;;;7.43;;
67675;SDS011;54456;48.436;10.028;2023-04-06T07:12:22;24.30;;;10.02;;
67675;SDS011;54456;48.436;10.028;2023-04-06T07:13:52;25.90;;;9.40;;
67675;SDS011;54456;48.436;10.028;2023-04-06T07:15:22;21.73;;;9.10;;
67675;SDS011;54456;48.436;10.028;2023-04-06T07:16:53;20.73;;;9.60;;
67675;SDS011;54456;48.436;10.028;2023-04-06T07:18:23;19.10;;;6.93;;
67675;SDS011;54456;48.436;10.028;2023-04-06T07:19:53;24.17;;;9.87;;
67675;SDS011;54456;48.436;10.028;2023-04-06T07:21:24;28.27;;;8.33;;
67675;SDS011;54456;48.436;10.028;2023-04-06T07:22:54;21.30;;;8.63;;
67675;SDS011;54456;48.436;10.028;2023-04-06T07:24:24;19.98;;;7.95;;
67675;SDS011;54456;48.436;10.028;2023-04-06T07:25:56;22.30;;;10.30;;
67675;SDS011;54456;48.436;10.028;2023-04-06T07:27:26;18.07;;;8.23;;
67675;SDS011;54456;48.436;10.028;2023-04-06T07:28:56;13.33;;;5.40;;
67675;SDS011;54456;48.436;10.028;2023-04-06T07:30:27;19.67;;;9.23;;
67675;SDS011;54456;48.436;10.028;2023-04-06T07:31:58;19.08;;;8.40;;
67675;SDS011;54456;48.436;10.028;2023-04-06T07:33:28;16.27;;;6.27;;
67675;SDS011;54456;48.436;10.028;2023-04-06T07:34:59;22.98;;;8.43;;
67675;SDS011;54456;48.436;10.028;2023-04-06T07:36:30;24.80;;;8.40;;
67675;SDS011;54456;48.436;10.028;2023-04-06T07:38:00;24.70;;;10.85;;
67675;SDS011;54456;48.436;10.028;2023-04-06T07:39:30;23.00;;;10.33;;
67675;SDS011;54456;48.436;10.028;2023-04-06T07:41:01;26.58;;;11.20;;
67675;SDS011;54456;48.436;10.028;2023-04-06T07:42:33;28.33;;;10.93;;
67675;SDS011;54456;48.436;10.028;2023-04-06T07:44:04;22.97;;;10.17;;
67675;SDS011;54456;48.436;10.028;2023-04-06T07:45:34;31.48;;;12.38;;
67675;SDS011;54456;48.436;10.028;2023-04-06T07:47:05;32.17;;;12.65;;
67675;SDS011;54456;48.436;10.028;2023-04-06T07:48:35;23.50;;;11.87;;
67675;SDS011;54456;48.436;10.028;2023-04-06T07:50:07;30.25;;;11.25;;
67675;SDS011;54456;48.436;10.028;2023-04-06T07:51:38;24.45;;;10.88;;
67675;SDS011;54456;48.436;10.028;2023-04-06T07:53:08;26.42;;;12.07;;
67675;SDS011;54456;48.436;10.028;2023-04-06T07:54:40;30.15;;;12.10;;
67675;SDS011;54456;48.436;10.028;2023-04-06T07:56:11;28.25;;;12.02;;
67675;SDS011;54456;48.436;10.028;2023-04-06T07:57:42;25.70;;;10.77;;
67675;SDS011;54456;48.436;10.028;2023-04-06T07:59:12;27.67;;;11.30;;
67675;SDS011;54456;48.436;10.028;2023-04-06T08:00:43;24.30;;;10.88;;
67675;SDS011;54456;48.436;10.028;2023-04-06T08:02:13;25.70;;;11.90;;
67675;SDS011;54456;48.436;10.028;2023-04-06T08:03:44;29.05;;;10.93;;
67675;SDS011;54456;48.436;10.028;2023-04-06T08:05:15;24.88;;;11.30;;
67675;SDS011;54456;48.436;10.028;2023-04-06T08:06:45;24.48;;;11.18;;
67675;SDS011;54456;48.436;10.028;2023-04-06T08:08:15;25.37;;;12.07;;
67675;SDS011;54456;48.436;10.028;2023-04-06T08:09:46;22.17;;;11.65;;
67675;SDS011;54456;48.436;10.028;2023-04-06T08:11:17;26.17;;;11.70;;
67675;SDS011;54456;48.436;10.028;2023-04-06T08:12:47;30.03;;;12.87;;
67675;SDS011;54456;48.436;10.028;2023-04-06T08:14:17;26.20;;;12.73;;
67675;SDS011;54456;48.436;10.028;2023-04-06T08:15:47;31.20;;;13.37;;
67675;SDS011;54456;48.436;10.028;2023-04-06T08:17:18;26.67;;;12.17;;
67675;SDS011;54456;48.436;10.028;2023-04-06T08:18:48;30.50;;;14.27;;
67675;SDS011;54456;48.436;10.028;2023-04-06T08:20:18;31.80;;;15.67;;
67675;SDS011;54456;48.436;10.028;2023-04-06T08:21:49;29.93;;;13.63;;
67675;SDS011;54456;48.436;10.028;2023-04-06T08:23:19;33.70;;;15.48;;
67675;SDS011;54456;48.436;10.028;2023-04-06T08:24:50;30.90;;;14.02;;
67675;SDS011;54456;48.436;10.028;2023-04-06T08:26:20;31.98;;;14.30;;
67675;SDS011;54456;48.436;10.028;2023-04-06T08:27:51;31.35;;;15.95;;
67675;SDS011;54456;48.436;10.028;2023-04-06T08:29:21;31.02;;;15.05;;
67675;SDS011;54456;48.436;10.028;2023-04-06T08:30:51;30.52;;;14.88;;
67675;SDS011;54456;48.436;10.028;2023-04-06T08:32:22;37.27;;;18.40;;
67675;SDS011;54456;48.436;10.028;2023-04-06T08:33:52;31.77;;;15.30;;
67675;SDS011;54456;48.436;10.028;2023-04-06T08:35:22;28.73;;;14.47;;
67675;SDS011;54456;48.436;10.028;2023-04-06T08:36:52;31.00;;;14.20;;
67675;SDS011;54456;48.436;10.028;2023-04-06T08:38:23;29.00;;;13.70;;
67675;SDS011;54456;48.436;10.028;2023-04-06T08:39:53;28.80;;;14.63;;
67675;SDS011;54456;48.436;10.028;2023-04-06T08:41:23;28.65;;;12.00;;
67675;SDS011;54456;48.436;10.028;2023-04-06T08:42:54;29.53;;;14.70;;
67675;SDS011;54456;48.436;10.028;2023-04-06T08:44:25;28.23;;;13.02;;
67675;SDS011;54456;48.436;10.028;2023-04-06T08:45:56;27.10;;;12.57;;
67675;SDS011;54456;48.436;10.028;2023-04-06T08:47:26;28.45;;;11.35;;
67675;SDS011;54456;48.436;10.028;2023-04-06T08:48:58;24.85;;;10.32;;
67675;SDS011;54456;48.436;10.028;2023-04-06T08:50:29;20.65;;;10.30;;
67675;SDS011;54456;48.436;10.028;2023-04-06T08:51:59;23.92;;;11.43;;
67675;SDS011;54456;48.436;10.028;2023-04-06T08:53:30;21.02;;;10.35;;
67675;SDS011;54456;48.436;10.028;2023-04-06T08:55:00;24.50;;;11.57;;
67675;SDS011;54456;48.436;10.028;2023-04-06T08:56:31;25.30;;;11.13;;
67675;SDS011;54456;48.436;10.028;2023-04-06T08:58:01;22.85;;;11.35;;
67675;SDS011;54456;48.436;10.028;2023-04-06T08:59:31;24.88;;;11.32;;
67675;SDS011;54456;48.436;10.028;2023-04-06T09:01:05;24.15;;;10.98;;
67675;SDS011;54456;48.436;10.028;2023-04-06T09:02:39;24.52;;;11.18;;
67675;SDS011;54456;48.436;10.028;2023-04-06T09:04:11;24.63;;;11.02;;
67675;SDS011;54456;48.436;10.028;2023-04-06T09:05:41;22.48;;;11.77;;
67675;SDS011;54456;48.436;10.028;2023-04-06T09:07:11;20.83;;;9.90;;
67675;SDS011;54456;48.436;10.028;2023-04-06T09:08:42;22.50;;;11.43;;
67675;SDS011;54456;48.436;10.028;2023-04-06T09:10:12;23.30;;;11.70;;
67675;SDS011;54456;48.436;10.028;2023-04-06T09:11:46;23.40;;;10.20;;
67675;SDS011;54456;48.436;10.028;2023-04-06T09:14:46;22.83;;;9.60;;
67675;SDS011;54456;48.436;10.028;2023-04-06T09:16:17;21.67;;;10.23;;
67675;SDS011;54456;48.436;10.028;2023-04-06T09:17:48;21.65;;;9.90;;
67675;SDS011;54456;48.436;10.028;2023-04-06T09:19:18;20.87;;;10.33;;
67675;SDS011;54456;48.436;10.028;2023-04-06T09:20:56;22.23;;;10.40;;
67675;SDS011;54456;48.436;10.028;2023-04-06T09:22:34;21.38;;;9.55;;
67675;SDS011;54456;48.436;10.028;2023-04-06T09:24:05;20.05;;;9.93;;
67675;SDS011;54456;48.436;10.028;2023-04-06T09:25:36;22.42;;;9.95;;
67675;SDS011;54456;48.436;10.028;2023-04-06T09:27:06;20.70;;;8.27;;
67675;SDS011;54456;48.436;10.028;2023-04-06T09:28:46;22.47;;;9.83;;
67675;SDS011;54456;48.436;10.028;2023-04-06T09:30:17;20.38;;;9.20;;
67675;SDS011;54456;48.436;10.028;2023-04-06T09:31:48;24.73;;;10.63;;
67675;SDS011;54456;48.436;10.028;2023-04-06T09:33:22;20.67;;;10.43;;
67675;SDS011;54456;48.436;10.028;2023-04-06T09:34:52;20.45;;;9.10;;
67675;SDS011;54456;48.436;10.028;2023-04-06T09:36:30;21.17;;;10.77;;
67675;SDS011;54456;48.436;10.028;2023-04-06T09:38:10;20.98;;;9.13;;
67675;SDS011;54456;48.436;10.028;2023-04-06T09:39:40;18.17;;;8.63;;
67675;SDS011;54456;48.436;10.028;2023-04-06T09:41:11;19.23;;;7.97;;
67675;SDS011;54456;48.436;10.028;2023-04-06T09:42:41;18.60;;;8.57;;
67675;SDS011;54456;48.436;10.028;2023-04-06T09:44:12;18.83;;;8.52;;
67675;SDS011;54456;48.436;10.028;2023-04-06T09:45:42;19.40;;;8.37;;
67675;SDS011;54456;48.436;10.028;2023-04-06T09:47:12;16.27;;;8.20;;
67675;SDS011;54456;48.436;10.028;2023-04-06T09:48:43;15.63;;;7.00;;
67675;SDS011;54456;48.436;10.028;2023-04-06T09:50:14;17.67;;;7.28;;
67675;SDS011;54456;48.436;10.028;2023-04-06T09:51:45;14.50;;;5.97;;
67675;SDS011;54456;48.436;10.028;2023-04-06T09:53:19;19.95;;;9.27;;
67675;SDS011;54456;48.436;10.028;2023-04-06T09:54:49;21.08;;;9.68;;
67675;SDS011;54456;48.436;10.028;2023-04-06T09:56:22;15.75;;;8.27;;
67675;SDS011;54456;48.436;10.028;2023-04-06T09:58:06;18.33;;;8.07;;
67675;SDS011;54456;48.436;10.028;2023-04-06T10:01:16;16.02;;;6.50;;
67675;SDS011;54456;48.436;10.028;2023-04-06T10:02:50;21.08;;;8.35;;
67675;SDS011;54456;48.436;10.028;2023-04-06T10:06:03;14.85;;;7.05;;
67675;SDS011;54456;48.436;10.028;2023-04-06T10:07:34;12.15;;;5.15;;
67675;SDS011;54456;48.436;10.028;2023-04-06T10:09:06;21.58;;;8.98;;
67675;SDS011;54456;48.436;10.028;2023-04-06T10:10:38;19.13;;;8.32;;
67675;SDS011;54456;48.436;10.028;2023-04-06T10:12:08;19.48;;;9.05;;
67675;SDS011;54456;48.436;10.028;2023-04-06T10:13:39;20.92;;;9.23;;
67675;SDS011;54456;48.436;10.028;2023-04-06T10:15:09;17.07;;;7.30;;
67675;SDS011;54456;48.436;10.028;2023-04-06T10:16:40;17.45;;;8.02;;
67675;SDS011;54456;48.436;10.028;2023-04-06T10:18:11;16.90;;;6.80;;
67675;SDS011;54456;48.436;10.028;2023-04-06T10:19:44;18.90;;;9.52;;
67675;SDS011;54456;48.436;10.028;2023-04-06T10:21:19;17.23;;;7.60;;
67675;SDS011;54456;48.436;10.028;2023-04-06T10:23:01;17.40;;;7.82;;
67675;SDS011;54456;48.436;10.028;2023-04-06T10:24:35;18.17;;;7.65;;
67675;SDS011;54456;48.436;10.028;2023-04-06T10:26:05;20.35;;;8.95;;
67675;SDS011;54456;48.436;10.028;2023-04-06T10:27:42;20.67;;;9.05;;
67675;SDS011;54456;48.436;10.028;2023-04-06T10:29:12;16.97;;;7.33;;
67675;SDS011;54456;48.436;10.028;2023-04-06T10:30:42;16.83;;;7.67;;
67675;SDS011;54456;48.436;10.028;2023-04-06T10:32:13;16.63;;;8.38;;
67675;SDS011;54456;48.436;10.028;2023-04-06T10:33:53;16.83;;;6.93;;
67675;SDS011;54456;48.436;10.028;2023-04-06T10:35:23;16.63;;;7.50;;
67675;SDS011;54456;48.436;10.028;2023-04-06T10:36:54;14.70;;;6.35;;
67675;SDS011;54456;48.436;10.028;2023-04-06T10:38:37;16.52;;;7.00;;
67675;SDS011;54456;48.436;10.028;2023-04-06T10:40:17;15.38;;;6.45;;
67675;SDS011;54456;48.436;10.028;2023-04-06T10:41:48;18.05;;;8.02;;
67675;SDS011;54456;48.436;10.028;2023-04-06T10:43:19;18.77;;;8.00;;
67675;SDS011;54456;48.436;10.028;2023-04-06T10:44:49;18.50;;;9.25;;
67675;SDS011;54456;48.436;10.028;2023-04-06T10:46:24;18.15;;;8.45;;
67675;SDS011;54456;48.436;10.028;2023-04-06T10:47:55;17.17;;;8.05;;
67675;SDS011;54456;48.436;10.028;2023-04-06T10:49:25;17.67;;;7.45;;
67675;SDS011;54456;48.436;10.028;2023-04-06T10:50:56;16.80;;;8.43;;
67675;SDS011;54456;48.436;10.028;2023-04-06T10:52:26;16.07;;;7.57;;
67675;SDS011;54456;48.436;10.028;2023-04-06T10:53:57;19.47;;;8.00;;
67675;SDS011;54456;48.436;10.028;2023-04-06T10:55:28;15.77;;;8.18;;
67675;SDS011;54456;48.436;10.028;2023-04-06T10:56:59;16.38;;;6.40;;
67675;SDS011;54456;48.436;10.028;2023-04-06T10:58:29;15.97;;;7.03;;
67675;SDS011;54456;48.436;10.028;2023-04-06T11:00:00;18.23;;;7.25;;
67675;SDS011;54456;48.436;10.028;2023-04-06T11:01:31;16.07;;;6.57;;
67675;SDS011;54456;48.436;10.028;2023-04-06T11:03:01;19.40;;;8.17;;
67675;SDS011;54456;48.436;10.028;2023-04-06T11:04:31;19.52;;;7.50;;
67675;SDS011;54456;48.436;10.028;2023-04-06T11:06:04;17.40;;;8.73;;
67675;SDS011;54456;48.436;10.028;2023-04-06T11:07:35;17.95;;;8.48;;
67675;SDS011;54456;48.436;10.028;2023-04-06T11:09:06;9.77;;;4.53;;
67675;SDS011;54456;48.436;10.028;2023-04-06T11:10:36;14.57;;;6.95;;
67675;SDS011;54456;48.436;10.028;2023-04-06T11:12:06;12.73;;;5.20;;
67675;SDS011;54456;48.436;10.028;2023-04-06T11:13:40;15.87;;;7.03;;
67675;SDS011;54456;48.436;10.028;2023-04-06T11:15:10;13.23;;;5.90;;
67675;SDS011;54456;48.436;10.028;2023-04-06T11:16:41;15.67;;;6.47;;
67675;SDS011;54456;48.436;10.028;2023-04-06T11:18:11;15.05;;;7.63;;
67675;SDS011;54456;48.436;10.028;2023-04-06T11:19:42;15.80;;;6.95;;
67675;SDS011;54456;48.436;10.028;2023-04-06T11:21:12;15.05;;;7.32;;
67675;SDS011;54456;48.436;10.028;2023-04-06T11:22:49;17.20;;;7.55;;
67675;SDS011;54456;48.436;10.028;2023-04-06T11:24:23;12.80;;;5.85;;
67675;SDS011;54456;48.436;10.028;2023-04-06T11:25:54;16.75;;;7.05;;
67675;SDS011;54456;48.436;10.028;2023-04-06T11:27:32;13.07;;;5.32;;
67675;SDS011;54456;48.436;10.028;2023-04-06T11:29:02;12.35;;;5.03;;
67675;SDS011;54456;48.436;10.028;2023-04-06T11:30:32;14.13;;;5.72;;
67675;SDS011;54456;48.436;10.028;2023-04-06T11:32:05;13.45;;;5.75;;
67675;SDS011;54456;48.436;10.028;2023-04-06T11:33:37;9.93;;;4.28;;
67675;SDS011;54456;48.436;10.028;2023-04-06T11:35:12;16.08;;;6.65;;
67675;SDS011;54456;48.436;10.028;2023-04-06T11:36:43;16.15;;;6.90;;
67675;SDS011;54456;48.436;10.028;2023-04-06T11:38:13;15.77;;;7.38;;
67675;SDS011;54456;48.436;10.028;2023-04-06T11:39:48;14.63;;;6.25;;
67675;SDS011;54456;48.436;10.028;2023-04-06T11:41:22;16.00;;;6.30;;
67675;SDS011;54456;48.436;10.028;2023-04-06T11:42:56;16.88;;;7.30;;
67675;SDS011;54456;48.436;10.028;2023-04-06T11:46:02;14.63;;;6.57;;
67675;SDS011;54456;48.436;10.028;2023-04-06T11:47:33;14.93;;;6.47;;
67675;SDS011;54456;48.436;10.028;2023-04-06T11:49:04;13.45;;;6.90;;
67675;SDS011;54456;48.436;10.028;2023-04-06T11:50:34;14.23;;;6.25;;
67675;SDS011;54456;48.436;10.028;2023-04-06T11:52:15;14.60;;;6.32;;
67675;SDS011;54456;48.436;10.028;2023-04-06T11:53:45;13.90;;;6.53;;
67675;SDS011;54456;48.436;10.028;2023-04-06T11:55:17;14.47;;;6.63;;
67675;SDS011;54456;48.436;10.028;2023-04-06T11:56:47;14.63;;;6.93;;
67675;SDS011;54456;48.436;10.028;2023-04-06T11:58:20;14.67;;;7.10;;
67675;SDS011;54456;48.436;10.028;2023-04-06T11:59:53;13.85;;;6.60;;
67675;SDS011;54456;48.436;10.028;2023-04-06T12:01:25;16.02;;;6.57;;
67675;SDS011;54456;48.436;10.028;2023-04-06T12:02:55;15.90;;;6.90;;
67675;SDS011;54456;48.436;10.028;2023-04-06T12:04:26;13.87;;;6.77;;
67675;SDS011;54456;48.436;10.028;2023-04-06T12:05:56;13.17;;;6.43;;
67675;SDS011;54456;48.436;10.028;2023-04-06T12:07:26;14.18;;;6.63;;
67675;SDS011;54456;48.436;10.028;2023-04-06T12:08:59;13.70;;;6.37;;
67675;SDS011;54456;48.436;10.028;2023-04-06T12:10:30;15.48;;;6.78;;
67675;SDS011;54456;48.436;10.028;2023-04-06T12:12:00;13.43;;;6.87;;